Terminal Aerodrome Forecast
Issued by NWS Sterling, VA

Current Version | Previous Version | Graphics & Text | Print | Product List | Glossary On
Versions: 1 2 3 4 5 6 7 8 9 10 11 12 13 14 15 16 17 18 19
000
FTUS41 KLWX 030223 AAA
TAFMRB
TAF AMD
KMRB 030223Z 0302/0324 03008KT P6SM SCT007 OVC015
     FM030500 04005KT 4SM -DZ BR BKN004 OVC007
     FM031300 03006KT P6SM OVC007
     FM031600 05006KT P6SM SCT008 OVC015=

USA.gov is the U.S. government's official web portal to all federal, state and local government web resources and services.